Saturday, November 18, 2017, 6:14 AM GMT
Back to Local

CYGP, Gaspe, Que.

Location: , , Canada Lat: 48.767
Local Time: 6:14 AM GMT ( 6:14 GMT) Lon: -64.483
Time Zone: GMT Elev: 108 ft

Show me the last for .
Show Decoded

2017-11-18 06:00 METAR CYGP 180600Z 31011G20KT 3SM -SN OVC012 01/M01 A2948 RMK SC8 SLP987 =
2017-11-18 05:00 METAR CYGP 180500Z 32009G22KT 5SM -SN OVC012 01/M01 A2946 RMK SC8 SLP980 =
2017-11-18 04:00 METAR CYGP 180400Z 33010G16KT 300V020 5SM -SN OVC010 01/M01 A2944 RMK SC8 /SO1/
                 SLP973 =
2017-11-18 03:00 METAR CYGP 180300Z 33010G18KT 3SM -SN FEW008 OVC010 01/M01 A2941 RMK SF2SC6
                 SLP964 =
2017-11-18 02:00 METAR CYGP 180200Z 32008KT 290V360 4SM -SN FEW008 OVC011 01/M01 A2941 RMK SF2SC6
                 SLP963 =
2017-11-18 01:26 METAR CYGP 180126Z 32009KT 290V360 3SM -SN FEW008 OVC012 01/M01 A2941 RMK SF2SC6
                 SLP961 =
2017-11-18 01:00 METAR CYGP 180100Z 32009G21KT 290V010 2 1/2SM -SN SCT008 OVC010 01/M00 A2939 RMK
                 SN2SF2SC4 SLP957 =
2017-11-18 00:00 METAR CYGP 180000Z 31008G15KT 2 1/4SM -SN SCT008 OVC010 01/M01 A2938 RMK
                 SN2SC2SC4 /S08/ SLP953 =
2017-11-17 23:00 METAR CYGP 172300Z 34012G19KT 2 1/2SM -SN OVC010 01/M01 A2936 RMK SN2SC6 SLP947
                 =
2017-11-17 22:36 METAR CYGP 172236Z 35014G23KT 2SM -SN OVC010 01/M01 A2936 RMK SN2SC6 SLP945 =
2017-11-17 22:17 METAR CYGP 172217Z 35011G19KT 300V010 1 3/4SM -SN OVC010 01/M01 A2936 RMK SN2SC6
                 SLP946 =
2017-11-17 22:00 METAR CYGP 172200Z 33015KT 1 1/4SM -SN OVC007 01/M01 A2936 RMK SN4SF4 SLP945 =
2017-11-17 21:00 METAR CYGP 172100Z 36013G22KT 310V030 3/4SM -SN OVC007 01/M01 A2935 RMK SN5SF3 /
                 S06/ SLP943 =
2017-11-17 20:30 METAR CYGP 172030Z 35013G25KT 300V030 3/4SM -SN OVC007 01/M01 A2936 RMK SN5SF3
                 SLP945 =
2017-11-17 20:00 METAR CYGP 172000Z 36010G25KT 310V020 1/2SM SN VV004 01/M01 A2936 RMK SN8 SLP945
                 =
2017-11-17 19:00 METAR CYGP 171900Z 36010G18KT 1/4SM +SN VV004 01/M00 A2936 RMK SN8 /S SLP945 =
2017-11-17 18:21 METAR CYGP 171821Z 35009G16KT 3/8SM SN VV004 01/M00 A2936 RMK SN8 SLP946 =
2017-11-17 18:00 METAR CYGP 171800Z 36007KT 310V030 1/2SM SN OVC006 01/M00 A2937 RMK SN6SF2 /S04/
                 SLP949 =
2017-11-17 17:00 METAR CYGP 171700Z 35010G21KT 320V030 3/4SM -SN BKN006 OVC010 01/M00 A2938 RMK
                 SN4SF2SC2 /S03/ PRESFR SLP954 =
2017-11-17 16:46 METAR CYGP 171646Z 36010G15KT 320V040 1SM -SN OVC006 01/M00 A2940 RMK SN4SC4
                 PRESFR SLP959 =
2017-11-17 16:18 METAR CYGP 171618Z 04007KT 010V070 3/4SM -SN OVC007 01/M00 A2942 RMK SN1SC7
                 PRESFR SLP967 =
2017-11-17 16:00 METAR CYGP 171600Z 03003KT 330V140 1/2SM -SN OVC006 00/M00 A2944 RMK SN1SC7
                 SLP974 =
2017-11-17 15:36 METAR CYGP 171536Z 06007KT 1/2SM -SN OVC006 00/M00 A2946 RMK SN1SC7 SLP979 =
2017-11-17 15:00 METAR CYGP 171500Z 08007KT 1/2SM -SN OVC009 00/M00 A2949 RMK SN1SC7 SLP989 =
2017-11-17 14:44 METAR CYGP 171444Z 07007KT 3/4SM -SN BR OVC010 01/M00 A2949 RMK SC8 SLP990 =
2017-11-17 14:22 METAR CYGP 171422Z 07009KT 020V090 1SM -SN BR OVC008 01/00 A2950 RMK SC8 SLP993
                 =
2017-11-17 14:00 METAR CYGP 171400Z 08007KT 1 1/2SM -RA BR BKN008 01/M00 A2952 RMK SC5 SLP998 =
2017-11-17 13:00 METAR CYGP 171300Z 06009KT 3SM -RA BR OVC008 02/01 A2954 RMK SC8 SLP006 =
2017-11-17 12:37 METAR CYGP 171237Z 07008KT 3SM -SN BR OVC006 01/00 A2955 RMK SC8 SLP010 =
2017-11-17 12:00 METAR CYGP 171200Z 08012G21KT 3SM -RA BR OVC007 02/01 A2957 RMK SC8 SLP015 =
2017-11-17 11:46 METAR CYGP 171146Z 08012G20KT 3SM -RA BR OVC006 02/02 A2958 RMK SC8 SLP019 =
2017-11-17 11:00 METAR CYGP 171100Z 08014KT 5SM RA BR OVC006 03/02 A2958 RMK SC8 SLP019 =
2017-11-17 10:48 METAR CYGP 171048Z 08014KT 5SM RA BR OVC005 03/02 A2958 RMK SC8 SLP021 =
2017-11-17 10:00 METAR CYGP 171000Z 09012G19KT 5SM -RA BR OVC003 03/03 A2960 RMK SC8 SLP028 =
2017-11-17 09:00 METAR CYGP 170900Z 10013KT 5SM -RA BR OVC003 03/03 A2963 RMK SC8 SLP036 =
2017-11-17 08:00 METAR CYGP 170800Z 09007KT 5SM -RA BR OVC005 03/03 A2967 RMK SC8 SLP050 =
2017-11-17 07:00 METAR CYGP 170700Z 09008KT 5SM -RA BR OVC005 03/03 A2970 RMK SC8 SLP061 =

Support USWX by starting your Amazon purchase here.